Time;durP1;ratioP1;P1;durP2;ratioP2;P2;SDS_P1;SDS_P2;PMS_P1;PMS_P2;Temp;Humidity;BMP_temperature;BMP_pressure;BME280_temperature;BME280_humidity;BME280_pressure;Samples;Min_cycle;Max_cycle;Signal;HPM_P1;HPM_P2
2023/09/13 00:02:47;;;;;;;26.30;20.30;;;;;;;16.03;76.88;99870.85;131248;1255;107448;-77
2023/09/13 00:05:53;;;;;;;26.20;21.20;;;;;;;16.04;77.08;99866.22;131180;1253;107630;-77
2023/09/13 00:08:58;;;;;;;28.50;21.60;;;;;;;16.04;77.03;99862.95;131242;1250;106733;-77
2023/09/13 00:12:05;;;;;;;25.30;21.40;;;;;;;16.05;77.13;99856.28;131185;1253;107590;-76
2023/09/13 00:15:12;;;;;;;24.00;20.60;;;;;;;16.03;77.10;99856.19;131167;1256;108082;-76
2023/09/13 00:18:17;;;;;;;25.60;20.00;;;;;;;16.00;77.26;99859.24;131143;1248;107922;-76
2023/09/13 00:21:23;;;;;;;26.50;21.80;;;;;;;15.99;77.38;99850.54;131169;1254;108404;-76
2023/09/13 00:24:29;;;;;;;27.50;22.20;;;;;;;16.00;77.38;99849.34;131157;1255;108826;-76
2023/09/13 00:27:34;;;;;;;27.30;23.00;;;;;;;16.01;77.43;99849.60;131218;1253;108189;-77
2023/09/13 00:30:40;;;;;;;31.30;23.60;;;;;;;15.99;77.40;99845.13;130954;1248;108424;-79
2023/09/13 00:33:46;;;;;;;28.50;23.20;;;;;;;15.97;77.56;99839.35;131235;1256;108451;-76
2023/09/13 00:36:51;;;;;;;26.50;21.70;;;;;;;15.94;77.65;99842.95;131168;1263;108465;-76
2023/09/13 00:39:57;;;;;;;28.90;20.70;;;;;;;15.91;77.62;99849.80;131032;1254;108510;-76
2023/09/13 00:43:02;;;;;;;27.30;21.80;;;;;;;15.84;77.79;99850.63;131175;1256;108300;-76
2023/09/13 00:46:08;;;;;;;27.50;22.30;;;;;;;15.81;77.82;99852.63;131086;1250;107472;-76
2023/09/13 00:49:14;;;;;;;30.00;23.30;;;;;;;15.84;78.00;99848.02;131107;1250;107703;-77
2023/09/13 00:52:19;;;;;;;28.40;23.20;;;;;;;15.86;78.05;99846.16;131088;1254;108594;-77
2023/09/13 00:55:27;;;;;;;27.60;22.60;;;;;;;15.82;77.91;99842.36;131149;1253;107601;-77
2023/09/13 00:58:34;;;;;;;26.10;20.60;;;;;;;15.76;78.09;99845.06;131174;1261;108388;-77
2023/09/13 01:01:40;;;;;;;26.50;21.00;;;;;;;15.73;78.12;99844.95;131110;1252;108498;-77
2023/09/13 01:04:46;;;;;;;28.90;22.20;;;;;;;15.72;78.25;99845.17;131147;1264;108126;-77
2023/09/13 01:07:52;;;;;;;27.90;22.80;;;;;;;15.74;78.20;99846.29;131125;1254;108486;-78
2023/09/13 01:10:58;;;;;;;27.10;22.10;;;;;;;15.75;78.28;99847.01;131182;1254;108634;-77
2023/09/13 01:14:04;;;;;;;28.40;23.60;;;;;;;15.74;78.33;99846.91;131139;1253;108433;-77
2023/09/13 01:17:15;;;;;;;28.30;21.90;;;;;;;15.70;78.53;99854.52;131126;1256;108591;-77
2023/09/13 01:20:34;;;;;;;30.80;24.40;;;;;;;15.68;78.54;99854.76;131183;1253;108545;-77
2023/09/13 01:24:06;;;;;;;29.50;23.30;;;;;;;15.66;78.57;99850.55;131174;1251;108311;-77
2023/09/13 01:27:37;;;;;;;29.40;22.50;;;;;;;15.66;78.72;99853.34;131233;1255;108621;-77
2023/09/13 01:30:45;;;;;;;27.80;23.40;;;;;;;15.65;78.83;99850.38;131220;1253;106608;-77
2023/09/13 01:33:50;;;;;;;31.40;24.40;;;;;;;15.66;78.87;99848.85;131262;1253;108441;-77
2023/09/13 01:36:56;;;;;;;26.30;21.10;;;;;;;15.64;78.76;99846.94;131096;1252;108635;-77
2023/09/13 01:40:05;;;;;;;28.60;21.70;;;;;;;15.61;79.07;99849.86;131229;1254;108655;-77
2023/09/13 01:43:12;;;;;;;25.30;21.30;;;;;;;15.61;79.05;99848.41;131220;1253;107128;-77
2023/09/13 01:46:18;;;;;;;27.80;22.20;;;;;;;15.62;79.10;99847.88;131252;1253;107077;-77
2023/09/13 01:49:25;;;;;;;27.80;23.20;;;;;;;15.60;79.16;99843.35;131174;1250;107534;-77
2023/09/13 01:52:31;;;;;;;29.00;22.50;;;;;;;15.57;79.24;99846.89;131116;1253;107853;-77
2023/09/13 01:55:37;;;;;;;25.60;20.60;;;;;;;15.54;79.37;99845.88;131178;1254;108664;-77
2023/09/13 01:58:43;;;;;;;24.30;20.10;;;;;;;15.51;79.29;99847.09;131108;1256;107389;-76
2023/09/13 02:01:48;;;;;;;23.90;20.70;;;;;;;15.50;79.26;99843.16;131037;1253;108689;-77
2023/09/13 02:04:54;;;;;;;24.10;20.70;;;;;;;15.50;79.33;99845.36;131212;1254;106814;-77
2023/09/13 02:08:00;;;;;;;26.90;21.90;;;;;;;15.50;79.29;99838.16;131131;1253;107500;-78
2023/09/13 02:11:06;;;;;;;27.40;22.30;;;;;;;15.48;79.29;99839.67;131095;1255;107658;-76
2023/09/13 02:14:12;;;;;;;25.30;21.20;;;;;;;15.43;79.27;99839.02;131138;1256;107678;-76
2023/09/13 02:17:19;;;;;;;23.90;19.50;;;;;;;15.38;79.42;99842.04;131069;1253;106862;-76
2023/09/13 02:20:25;;;;;;;23.40;19.40;;;;;;;15.35;79.43;99838.98;131172;1261;108689;-77
2023/09/13 02:23:31;;;;;;;23.60;19.90;;;;;;;15.32;79.35;99837.39;131260;1254;107357;-77
2023/09/13 02:26:37;;;;;;;25.10;20.10;;;;;;;15.27;79.41;99836.31;131414;1253;107343;-77
2023/09/13 02:29:43;;;;;;;24.70;20.00;;;;;;;15.26;79.42;99839.95;131329;1253;106611;-80
2023/09/13 02:32:49;;;;;;;24.60;20.30;;;;;;;15.24;79.26;99838.92;132521;1253;107608;-79
2023/09/13 02:35:54;;;;;;;22.80;18.90;;;;;;;15.24;79.40;99836.08;131594;1253;109357;-78
2023/09/13 02:39:01;;;;;;;25.20;19.60;;;;;;;15.16;79.54;99830.36;131161;1263;107728;-77
2023/09/13 02:42:08;;;;;;;23.10;19.70;;;;;;;15.21;79.30;99837.55;131349;1254;107687;-77
2023/09/13 02:45:14;;;;;;;26.70;21.00;;;;;;;15.19;79.60;99835.45;131822;1253;107856;-78
2023/09/13 02:48:19;;;;;;;26.80;22.60;;;;;;;15.15;79.61;99832.17;131436;1254;108491;-76
2023/09/13 02:51:25;;;;;;;24.70;21.00;;;;;;;15.11;79.83;99830.75;131156;1255;109301;-76
2023/09/13 02:54:31;;;;;;;23.50;19.60;;;;;;;15.02;79.81;99832.98;131254;1261;108732;-79
2023/09/13 02:57:37;;;;;;;22.60;18.20;;;;;;;14.91;80.01;99834.74;131398;1254;107325;-77
2023/09/13 03:00:45;;;;;;;23.40;19.40;;;;;;;14.87;80.26;99836.36;131359;1254;106290;-76
2023/09/13 03:03:51;;;;;;;23.90;19.80;;;;;;;14.83;80.04;99832.45;131397;1259;106364;-76
2023/09/13 03:06:56;;;;;;;23.50;19.50;;;;;;;14.76;80.29;99833.95;131268;1254;107602;-76
2023/09/13 03:10:02;;;;;;;26.40;20.30;;;;;;;14.74;80.37;99840.33;131215;1253;106810;-76
2023/09/13 03:13:08;;;;;;;27.00;20.30;;;;;;;14.63;79.93;99836.45;131190;1254;106590;-77
2023/09/13 03:16:16;;;;;;;24.80;19.50;;;;;;;14.54;80.25;99834.83;131134;1253;107556;-76
2023/09/13 03:19:22;;;;;;;23.20;19.20;;;;;;;14.50;80.38;99832.70;131134;1256;107339;-76
2023/09/13 03:22:28;;;;;;;26.70;20.00;;;;;;;14.49;80.54;99830.48;131242;1253;107578;-76
2023/09/13 03:25:36;;;;;;;26.50;21.50;;;;;;;14.50;80.68;99830.90;131115;1264;106484;-77
2023/09/13 03:28:43;;;;;;;27.00;21.40;;;;;;;14.54;81.02;99831.85;131202;1255;106887;-76
2023/09/13 03:31:48;;;;;;;28.00;22.10;;;;;;;14.57;80.95;99832.08;131227;1253;106444;-76
2023/09/13 03:34:54;;;;;;;28.00;21.20;;;;;;;14.56;80.89;99830.55;131245;1256;107081;-76
2023/09/13 03:38:00;;;;;;;24.90;19.60;;;;;;;14.51;81.11;99831.08;131266;1263;107526;-76
2023/09/13 03:41:06;;;;;;;23.50;19.80;;;;;;;14.51;81.12;99826.78;131342;1254;107479;-76
2023/09/13 03:44:12;;;;;;;23.10;19.80;;;;;;;14.52;81.02;99820.42;131248;1254;106517;-76
2023/09/13 03:47:19;;;;;;;24.10;20.20;;;;;;;14.52;81.24;99816.55;131359;1254;108510;-77
2023/09/13 03:50:24;;;;;;;24.70;20.60;;;;;;;14.50;81.40;99810.79;131410;1252;107702;-76
2023/09/13 03:53:30;;;;;;;22.60;18.90;;;;;;;14.47;81.33;99807.27;131515;1253;107663;-76
2023/09/13 03:56:36;;;;;;;22.70;18.90;;;;;;;14.44;81.32;99810.87;131233;1253;106676;-78
2023/09/13 03:59:42;;;;;;;22.80;19.00;;;;;;;14.42;81.43;99810.11;131221;1248;108528;-76
2023/09/13 04:02:47;;;;;;;27.10;20.90;;;;;;;14.41;81.69;99808.23;131280;1254;107035;-76
2023/09/13 04:05:53;;;;;;;24.40;19.80;;;;;;;14.41;81.58;99812.29;131445;1258;107679;-76
2023/09/13 04:08:59;;;;;;;22.40;19.40;;;;;;;14.41;81.70;99810.48;131382;1251;106765;-77
2023/09/13 04:12:06;;;;;;;24.50;18.60;;;;;;;14.42;81.68;99812.88;131401;1258;107731;-78
2023/09/13 04:15:12;;;;;;;26.60;20.20;;;;;;;14.42;81.80;99812.84;131303;1261;107615;-77
2023/09/13 04:18:18;;;;;;;30.10;22.00;;;;;;;14.44;81.97;99809.98;131340;1254;106781;-77
2023/09/13 04:21:25;;;;;;;28.50;21.90;;;;;;;14.47;81.97;99813.19;131465;1253;108607;-77
2023/09/13 04:24:30;;;;;;;31.00;22.00;;;;;;;14.48;81.86;99810.72;131474;1248;107683;-77
2023/09/13 04:27:36;;;;;;;24.60;19.40;;;;;;;14.49;82.27;99807.67;131126;1256;108513;-76
2023/09/13 04:30:42;;;;;;;24.70;18.90;;;;;;;14.50;82.26;99805.08;131171;1253;107681;-75
2023/09/13 04:33:53;;;;;;;26.60;19.90;;;;;;;14.50;82.43;99803.98;131184;1256;108821;-75
2023/09/13 04:37:02;;;;;;;25.30;20.00;;;;;;;14.55;82.61;99809.83;131138;1253;108638;-75
2023/09/13 04:40:09;;;;;;;23.80;19.70;;;;;;;14.59;82.38;99814.63;131212;1257;108668;-76
2023/09/13 04:43:23;;;;;;;26.60;21.00;;;;;;;14.60;82.57;99816.33;131169;1261;106521;-75
2023/09/13 04:46:29;;;;;;;28.20;20.10;;;;;;;14.66;82.78;99815.24;131225;1257;106786;-75
2023/09/13 04:49:36;;;;;;;29.00;19.50;;;;;;;14.72;82.87;99816.75;131165;1261;107714;-71
2023/09/13 04:52:42;;;;;;;26.50;21.20;;;;;;;14.79;83.01;99812.27;131344;1250;107851;-77
2023/09/13 04:55:48;;;;;;;26.20;21.70;;;;;;;14.92;82.96;99814.38;131251;1248;106767;-76
2023/09/13 04:58:53;;;;;;;24.90;19.80;;;;;;;15.08;83.05;99814.24;131196;1262;107752;-78
2023/09/13 05:01:59;;;;;;;38.50;26.10;;;;;;;15.19;83.10;99810.13;131103;1254;106493;-78
2023/09/13 05:05:05;;;;;;;37.40;26.80;;;;;;;15.34;83.05;99808.95;131276;1257;106509;-78
2023/09/13 05:08:11;;;;;;;65.20;43.90;;;;;;;15.48;83.09;99804.35;131169;1248;107191;-78
2023/09/13 05:11:17;;;;;;;54.60;37.80;;;;;;;15.60;83.18;99806.41;131209;1263;106874;-78
2023/09/13 05:14:22;;;;;;;54.80;37.00;;;;;;;15.69;83.08;99808.04;131190;1261;107792;-78
2023/09/13 05:17:29;;;;;;;68.50;38.90;;;;;;;15.78;83.30;99810.48;131202;1248;107197;-78
2023/09/13 05:20:35;;;;;;;52.10;30.60;;;;;;;15.86;83.46;99812.42;131216;1253;106813;-77
2023/09/13 05:23:40;;;;;;;51.20;30.60;;;;;;;16.03;83.66;99814.85;131199;1251;108587;-79
2023/09/13 05:26:46;;;;;;;46.50;29.10;;;;;;;16.23;83.69;99815.09;131094;1261;107464;-79
2023/09/13 05:29:52;;;;;;;44.50;27.20;;;;;;;16.40;83.48;99811.96;131158;1263;106990;-78
2023/09/13 05:32:58;;;;;;;42.70;26.90;;;;;;;16.56;83.55;99814.34;131241;1263;107898;-78
2023/09/13 05:36:07;;;;;;;30.50;20.90;;;;;;;16.75;83.69;99818.03;131113;1253;106992;-76
2023/09/13 05:39:13;;;;;;;27.00;20.60;;;;;;;16.96;83.68;99814.29;131232;1257;107776;-78
2023/09/13 05:42:18;;;;;;;26.70;20.80;;;;;;;17.18;83.67;99811.02;131109;1248;107575;-78
2023/09/13 05:45:24;;;;;;;24.10;19.20;;;;;;;17.39;83.66;99808.93;131176;1248;108667;-78
2023/09/13 05:48:30;;;;;;;26.80;20.50;;;;;;;17.56;83.76;99810.38;131278;1252;106841;-78
2023/09/13 05:51:36;;;;;;;21.60;17.60;;;;;;;17.72;83.72;99806.77;131163;1254;107751;-78
2023/09/13 05:54:42;;;;;;;21.00;17.60;;;;;;;17.87;83.71;99799.13;131194;1248;106678;-79
2023/09/13 05:57:50;;;;;;;19.90;17.70;;;;;;;18.07;83.87;99800.73;131304;1248;108548;-79
2023/09/13 06:00:57;;;;;;;23.30;17.60;;;;;;;18.30;83.85;99803.69;131418;1260;106501;-79
2023/09/13 06:04:03;;;;;;;22.30;18.60;;;;;;;18.44;83.69;99807.59;131372;1248;107399;-79
2023/09/13 06:07:09;;;;;;;20.70;17.60;;;;;;;18.57;83.82;99810.35;131157;1251;107947;-79
2023/09/13 06:10:14;;;;;;;21.70;16.90;;;;;;;18.69;83.60;99807.86;131126;1261;106779;-79
2023/09/13 06:13:20;;;;;;;21.40;16.60;;;;;;;18.82;83.68;99805.47;131144;1251;107454;-79
2023/09/13 06:16:25;;;;;;;19.50;16.40;;;;;;;18.97;83.55;99808.41;131127;1251;107884;-79
2023/09/13 06:19:31;;;;;;;20.40;18.20;;;;;;;19.12;83.37;99811.71;131173;1248;107683;-79
2023/09/13 06:22:37;;;;;;;23.20;18.90;;;;;;;19.25;83.38;99811.86;131131;1253;106720;-79
2023/09/13 06:25:43;;;;;;;20.10;17.30;;;;;;;19.36;83.35;99811.77;131250;1254;106705;-79
2023/09/13 06:28:48;;;;;;;19.90;17.00;;;;;;;19.46;83.34;99811.73;131185;1253;107039;-79
2023/09/13 06:31:56;;;;;;;23.90;16.90;;;;;;;19.56;83.12;99811.79;131273;1252;107818;-80
2023/09/13 06:35:02;;;;;;;20.50;17.40;;;;;;;19.70;83.00;99810.42;131302;1254;106933;-79
2023/09/13 06:38:08;;;;;;;19.70;16.80;;;;;;;19.83;82.69;99811.42;131300;1251;107529;-79
2023/09/13 06:41:14;;;;;;;22.10;16.70;;;;;;;19.94;82.67;99812.10;131215;1253;105723;-78
2023/09/13 06:44:19;;;;;;;21.10;16.80;;;;;;;20.03;82.57;99809.54;131081;1254;107242;-78
2023/09/13 06:47:28;;;;;;;19.20;15.50;;;;;;;20.12;82.41;99808.77;131257;1253;106610;-79
2023/09/13 06:50:34;;;;;;;18.60;16.50;;;;;;;20.24;82.40;99811.17;131362;1249;106795;-81
2023/09/13 06:53:39;;;;;;;18.40;16.40;;;;;;;20.37;82.17;99811.59;131372;1254;108446;-80
2023/09/13 06:56:45;;;;;;;20.40;17.20;;;;;;;20.49;82.09;99811.20;131148;1253;107738;-79
2023/09/13 06:59:51;;;;;;;19.50;17.30;;;;;;;20.60;81.86;99805.92;131156;1254;107745;-79
2023/09/13 07:02:56;;;;;;;20.70;17.10;;;;;;;20.70;81.68;99808.76;131206;1250;106779;-77
2023/09/13 07:06:02;;;;;;;18.10;15.70;;;;;;;20.78;81.49;99809.27;131085;1257;107675;-77
2023/09/13 07:09:08;;;;;;;20.70;17.00;;;;;;;20.88;81.48;99810.48;131113;1251;106441;-78
2023/09/13 07:12:14;;;;;;;18.90;16.40;;;;;;;20.96;81.33;99811.02;131113;1254;106890;-77
2023/09/13 07:15:19;;;;;;;20.10;16.20;;;;;;;21.08;81.15;99811.05;130968;1254;106944;-77
2023/09/13 07:18:25;;;;;;;19.80;15.90;;;;;;;21.19;80.86;99815.05;130915;1254;152844;-77
2023/09/13 07:21:31;;;;;;;20.10;17.70;;;;;;;21.29;80.65;99820.50;131104;1254;106817;-77
2023/09/13 07:24:37;;;;;;;19.40;15.90;;;;;;;21.36;80.42;99823.67;131014;1254;106536;-79
2023/09/13 07:27:42;;;;;;;20.00;15.80;;;;;;;21.43;80.39;99819.72;131009;1251;107525;-77
2023/09/13 07:30:48;;;;;;;22.60;17.50;;;;;;;21.49;80.27;99824.23;131071;1254;108645;-77
2023/09/13 07:33:53;;;;;;;19.20;16.00;;;;;;;21.57;80.44;99826.85;131029;1255;107058;-77
2023/09/13 07:36:59;;;;;;;19.40;14.90;;;;;;;21.65;80.10;99827.85;131070;1257;107824;-77
2023/09/13 07:40:05;;;;;;;18.40;16.10;;;;;;;21.73;80.11;99827.90;131093;1254;107248;-77
2023/09/13 07:43:11;;;;;;;17.30;15.40;;;;;;;21.85;80.31;99824.54;131046;1254;107593;-77
2023/09/13 07:46:16;;;;;;;18.20;16.30;;;;;;;21.97;80.01;99822.80;131044;1254;108719;-77
2023/09/13 07:49:22;;;;;;;18.10;16.30;;;;;;;22.06;79.74;99822.83;131071;1251;108655;-77
2023/09/13 07:52:27;;;;;;;20.90;16.90;;;;;;;22.14;79.60;99820.88;131083;1253;108579;-77
2023/09/13 07:55:33;;;;;;;18.50;16.50;;;;;;;22.23;79.26;99816.29;130987;1253;108664;-77
2023/09/13 07:58:39;;;;;;;18.90;15.90;;;;;;;22.30;79.16;99819.48;131083;1258;106607;-76
2023/09/13 08:01:45;;;;;;;17.70;15.80;;;;;;;22.35;78.96;99823.58;131031;1253;107333;-77
2023/09/13 08:04:50;;;;;;;15.70;14.00;;;;;;;22.42;78.83;99825.91;131005;1254;107005;-77
2023/09/13 08:07:56;;;;;;;17.10;14.80;;;;;;;22.51;78.67;99830.22;131089;1251;108448;-77
2023/09/13 08:11:03;;;;;;;17.60;15.80;;;;;;;22.63;78.43;99831.96;131017;1254;107123;-77
2023/09/13 08:14:08;;;;;;;17.50;14.90;;;;;;;22.74;77.85;99825.83;131079;1254;105815;-77
2023/09/13 08:17:14;;;;;;;18.40;14.50;;;;;;;22.86;77.45;99821.68;131018;1253;107638;-77
2023/09/13 08:20:19;;;;;;;18.00;15.00;;;;;;;22.96;77.14;99819.52;130983;1253;106947;-77
2023/09/13 08:23:25;;;;;;;16.50;14.80;;;;;;;23.04;76.93;99817.55;131058;1255;107570;-77
2023/09/13 08:26:31;;;;;;;15.90;14.20;;;;;;;23.11;76.73;99820.41;131044;1250;107531;-78
2023/09/13 08:29:38;;;;;;;18.50;15.10;;;;;;;23.18;76.61;99816.55;131080;1251;108648;-78
2023/09/13 08:32:43;;;;;;;15.20;13.60;;;;;;;23.24;76.40;99816.11;131075;1254;108592;-78
2023/09/13 08:35:49;;;;;;;18.10;14.50;;;;;;;23.31;76.39;99815.61;131097;1253;108353;-78
2023/09/13 08:38:55;;;;;;;15.50;13.90;;;;;;;23.40;76.34;99819.77;131074;1254;108606;-78
2023/09/13 08:42:01;;;;;;;14.30;12.80;;;;;;;23.52;75.87;99818.33;131166;1255;107601;-78
2023/09/13 08:45:08;;;;;;;17.70;14.00;;;;;;;23.66;75.09;99816.84;131291;1250;107861;-79
2023/09/13 08:48:15;;;;;;;16.60;13.30;;;;;;;23.82;74.63;99815.85;131336;1251;108399;-77
2023/09/13 08:51:22;;;;;;;14.40;12.90;;;;;;;23.94;74.45;99805.23;131214;1254;108141;-78
2023/09/13 08:54:29;;;;;;;14.00;12.60;;;;;;;24.00;74.03;99808.02;131440;1253;107840;-78
2023/09/13 08:57:37;;;;;;;14.60;13.20;;;;;;;24.05;74.10;99806.77;131193;1250;106312;-80
2023/09/13 09:00:46;;;;;;;14.80;13.30;;;;;;;24.07;73.84;99806.27;131075;1250;106687;-78
2023/09/13 09:03:53;;;;;;;15.40;13.00;;;;;;;24.10;73.88;99799.87;131109;1253;107490;-78
2023/09/13 09:06:59;;;;;;;14.80;13.10;;;;;;;24.14;73.53;99795.38;131068;1253;107919;-78
2023/09/13 09:10:11;;;;;;;16.50;13.10;;;;;;;24.17;73.23;99795.27;131049;1263;107658;-78
2023/09/13 09:13:19;;;;;;;15.10;13.50;;;;;;;24.21;73.16;99788.50;130988;1254;107569;-78
2023/09/13 09:16:27;;;;;;;14.70;13.20;;;;;;;24.22;72.76;99787.30;131099;1255;107887;-78
2023/09/13 09:19:33;;;;;;;14.80;13.40;;;;;;;24.16;72.66;99789.16;130997;1254;107711;-78
2023/09/13 09:22:39;;;;;;;14.00;12.60;;;;;;;24.18;72.57;99790.59;131060;1255;107721;-79
2023/09/13 09:25:49;;;;;;;14.20;12.60;;;;;;;24.24;72.29;99785.86;131052;1253;108671;-79
2023/09/13 09:28:55;;;;;;;14.10;12.50;;;;;;;24.29;71.65;99787.83;131169;1254;106971;-78
2023/09/13 09:32:01;;;;;;;14.30;12.80;;;;;;;24.31;71.11;99782.55;131119;1254;108623;-78
2023/09/13 09:35:09;;;;;;;13.20;11.70;;;;;;;24.35;71.21;99782.45;131079;1253;107382;-80
2023/09/13 09:38:24;;;;;;;13.90;12.50;;;;;;;24.40;70.94;99780.15;131048;1254;107046;-79
2023/09/13 09:41:34;;;;;;;13.30;11.90;;;;;;;24.44;70.67;99772.94;131163;1251;107537;-79
2023/09/13 09:44:40;;;;;;;14.50;12.60;;;;;;;24.43;70.58;99774.56;131136;1250;108477;-79
2023/09/13 09:47:45;;;;;;;13.70;11.20;;;;;;;24.48;70.20;99772.05;131036;1254;107833;-79
2023/09/13 09:50:53;;;;;;;13.50;12.10;;;;;;;24.54;70.03;99774.77;131118;1254;107720;-79
2023/09/13 09:53:59;;;;;;;13.30;12.00;;;;;;;24.59;69.84;99772.30;131113;1253;107171;-79
2023/09/13 09:57:05;;;;;;;13.20;11.80;;;;;;;24.64;69.29;99766.80;131186;1253;106708;-78
2023/09/13 10:00:14;;;;;;;12.70;11.50;;;;;;;24.70;69.24;99767.39;131136;1254;108746;-79
2023/09/13 10:03:20;;;;;;;12.60;11.40;;;;;;;24.76;68.87;99764.83;131239;1253;107667;-78
2023/09/13 10:06:26;;;;;;;13.60;11.50;;;;;;;24.81;68.80;99766.90;131213;1250;107689;-78
2023/09/13 10:09:42;;;;;;;14.30;12.80;;;;;;;24.92;68.58;99758.80;131089;1253;106923;-80
2023/09/13 10:12:50;;;;;;;13.40;12.10;;;;;;;24.93;68.52;99758.33;131008;1254;107647;-79
2023/09/13 10:15:56;;;;;;;13.40;12.00;;;;;;;24.91;68.37;99757.43;131238;1253;106768;-79
2023/09/13 10:19:06;;;;;;;13.60;12.20;;;;;;;24.94;68.50;99756.80;131227;1251;108559;-79
2023/09/13 10:22:14;;;;;;;13.70;12.30;;;;;;;24.93;68.16;99752.64;131088;1251;107533;-80
2023/09/13 10:25:20;;;;;;;14.20;11.70;;;;;;;24.97;67.96;99753.93;131181;1251;107014;-79
2023/09/13 10:28:32;;;;;;;12.30;11.00;;;;;;;25.06;67.72;99754.16;131173;1253;106002;-79
2023/09/13 10:31:42;;;;;;;14.80;11.10;;;;;;;25.14;67.67;99751.77;131183;1253;107368;-79
2023/09/13 10:34:53;;;;;;;12.60;11.30;;;;;;;25.26;67.24;99752.38;131222;1250;107339;-79
2023/09/13 10:38:04;;;;;;;12.40;11.20;;;;;;;25.31;67.00;99747.73;131202;1250;107511;-79
2023/09/13 10:41:17;;;;;;;12.20;11.00;;;;;;;25.32;66.62;99748.64;131280;1255;107514;-79
2023/09/13 10:44:22;;;;;;;11.60;10.50;;;;;;;25.37;66.49;99746.82;131308;1253;108705;-79
2023/09/13 10:47:28;;;;;;;12.20;11.00;;;;;;;25.46;66.41;99741.90;131207;1255;106504;-79
2023/09/13 10:50:34;;;;;;;12.40;11.10;;;;;;;25.56;65.78;99741.25;131213;1251;108385;-80
2023/09/13 10:53:41;;;;;;;13.20;10.90;;;;;;;25.71;65.42;99740.18;131212;1253;106775;-79
2023/09/13 10:56:48;;;;;;;11.80;10.60;;;;;;;25.77;65.38;99739.45;131302;1253;106914;-79
2023/09/13 10:59:55;;;;;;;12.90;11.00;;;;;;;25.75;65.36;99743.64;131080;1262;107316;-79
2023/09/13 11:03:03;;;;;;;11.50;10.20;;;;;;;25.87;64.64;99738.77;131222;1250;107028;-79
2023/09/13 11:06:10;;;;;;;10.90;9.80;;;;;;;25.97;64.64;99739.88;131240;1249;107979;-79
2023/09/13 11:09:18;;;;;;;11.50;10.40;;;;;;;25.92;64.48;99741.89;131276;1253;107399;-80
2023/09/13 11:12:28;;;;;;;11.50;10.30;;;;;;;25.90;64.15;99741.27;131356;1249;107766;-79
2023/09/13 11:15:34;;;;;;;12.50;10.90;;;;;;;25.84;63.94;99738.71;131221;1251;107760;-79
2023/09/13 11:18:48;;;;;;;11.80;10.00;;;;;;;25.85;63.90;99736.36;131163;1257;106961;-79
2023/09/13 11:22:00;;;;;;;11.60;10.40;;;;;;;25.84;63.55;99738.16;131214;1253;107738;-79
2023/09/13 11:25:08;;;;;;;;;;;;;;;25.84;63.60;99742.86;131363;1250;107732;-79
2023/09/13 11:28:30;;;;;;;11.60;10.00;;;;;;;25.84;63.61;99739.70;131134;1253;107079;-79
2023/09/13 11:31:59;;;;;;;12.60;11.20;;;;;;;25.91;63.91;99740.84;131337;1252;107718;-79
2023/09/13 11:35:07;;;;;;;12.60;11.30;;;;;;;25.97;63.21;99738.02;131411;1253;106578;-79
2023/09/13 11:38:13;;;;;;;12.40;11.10;;;;;;;25.95;63.17;99733.32;131366;1252;107684;-79
2023/09/13 11:41:20;;;;;;;12.40;11.00;;;;;;;25.90;62.98;99734.48;131233;1250;107943;-80
2023/09/13 11:44:26;;;;;;;12.80;11.20;;;;;;;25.98;62.41;99734.74;131265;1253;107656;-79
2023/09/13 11:47:36;;;;;;;11.20;10.10;;;;;;;26.10;62.06;99731.46;131265;1250;107603;-80
2023/09/13 11:50:52;;;;;;;11.90;10.70;;;;;;;26.11;62.14;99733.80;131262;1251;107675;-81
2023/09/13 11:53:57;;;;;;;12.70;10.70;;;;;;;26.09;61.46;99729.38;131335;1252;107659;-80
2023/09/13 11:57:04;;;;;;;11.90;10.70;;;;;;;26.31;61.83;99741.23;131309;1251;107594;-80
2023/09/13 12:00:16;;;;;;;11.80;10.50;;;;;;;26.43;61.66;99739.47;131274;1255;106234;-80
2023/09/13 12:03:23;;;;;;;12.40;10.60;;;;;;;26.45;61.42;99741.77;131167;1251;106582;-81
2023/09/13 12:06:29;;;;;;;11.50;10.50;;;;;;;26.52;61.20;99734.61;131318;1249;108446;-80
2023/09/13 12:09:35;;;;;;;11.20;9.90;;;;;;;26.55;60.66;99737.52;131302;1252;107981;-80
2023/09/13 12:12:43;;;;;;;10.50;9.50;;;;;;;26.68;60.37;99738.16;131391;1250;107724;-81
2023/09/13 12:16:03;;;;;;;11.80;10.60;;;;;;;26.83;60.27;99735.16;131334;1249;106758;-80
2023/09/13 12:19:11;;;;;;;12.00;10.80;;;;;;;26.90;60.29;99744.80;131327;1253;107591;-80
2023/09/13 12:22:18;;;;;;;10.10;9.20;;;;;;;26.97;59.56;99747.20;131283;1252;108603;-80
2023/09/13 12:25:25;;;;;;;10.10;9.10;;;;;;;27.08;59.28;99745.33;131326;1252;107640;-80
2023/09/13 12:28:34;;;;;;;9.90;9.00;;;;;;;27.24;58.78;99738.98;131142;1260;106777;-81
2023/09/13 12:31:40;;;;;;;9.90;9.00;;;;;;;27.27;58.76;99731.53;131271;1251;106863;-80
2023/09/13 12:34:46;;;;;;;11.90;9.00;;;;;;;27.19;58.51;99731.63;131229;1254;106788;-80
2023/09/13 12:38:03;;;;;;;10.80;9.70;;;;;;;27.25;58.21;99727.25;131276;1252;106674;-81
2023/09/13 12:41:09;;;;;;;10.90;9.90;;;;;;;27.25;58.12;99728.28;131310;1250;107629;-80
2023/09/13 12:44:18;;;;;;;12.00;9.90;;;;;;;27.24;57.91;99722.20;131248;1252;107325;-80
2023/09/13 12:47:23;;;;;;;10.80;9.70;;;;;;;27.29;58.07;99724.14;131237;1253;107111;-80
2023/09/13 12:50:29;;;;;;;10.20;9.20;;;;;;;27.26;57.41;99721.06;131305;1252;107491;-81
2023/09/13 12:53:35;;;;;;;10.90;9.80;;;;;;;27.29;57.37;99713.66;131240;1252;107261;-81
2023/09/13 12:56:41;;;;;;;10.80;9.70;;;;;;;27.19;57.21;99708.46;131366;1251;107267;-81
2023/09/13 12:59:47;;;;;;;13.60;9.70;;;;;;;27.15;57.33;99710.05;131303;1254;107668;-80
2023/09/13 13:02:55;;;;;;;10.20;9.30;;;;;;;27.11;57.03;99708.69;131223;1253;107803;-80
2023/09/13 13:06:02;;;;;;;9.80;8.80;;;;;;;27.14;56.31;99707.75;131277;1252;108608;-80
2023/09/13 13:09:09;;;;;;;10.10;9.20;;;;;;;27.29;55.91;99697.07;131196;1253;107862;-81
2023/09/13 13:12:18;;;;;;;11.80;9.40;;;;;;;27.30;56.20;99697.35;131282;1253;107324;-80
2023/09/13 13:15:32;;;;;;;11.00;9.80;;;;;;;27.39;55.88;99694.86;131270;1252;107697;-80
2023/09/13 13:18:44;;;;;;;10.10;9.20;;;;;;;27.39;56.18;99695.90;131185;1251;107470;-81
2023/09/13 13:21:55;;;;;;;11.10;9.70;;;;;;;27.48;55.98;99689.85;131225;1253;108577;-80
2023/09/13 13:25:00;;;;;;;;;;;;;;;27.58;55.07;99690.08;131250;1253;108461;-81
2023/09/13 13:28:07;;;;;;;10.00;9.10;;;;;;;27.75;55.08;99683.76;131256;1251;108442;-80
2023/09/13 13:31:15;;;;;;;10.70;9.60;;;;;;;27.80;54.95;99681.44;131211;1253;107672;-80
2023/09/13 13:34:21;;;;;;;13.00;10.10;;;;;;;27.78;54.57;99676.73;131389;1252;107532;-80
2023/09/13 13:37:26;;;;;;;11.30;10.20;;;;;;;27.73;54.32;99675.55;131323;1253;108686;-78
2023/09/13 13:40:32;;;;;;;10.40;9.40;;;;;;;27.66;54.37;99674.87;131180;1253;106662;-75
2023/09/13 13:43:39;;;;;;;10.40;9.30;;;;;;;27.59;54.09;99671.48;131147;1252;105735;-77
2023/09/13 13:46:45;;;;;;;10.90;9.80;;;;;;;27.53;54.18;99667.13;131125;1249;107404;-78
2023/09/13 13:49:51;;;;;;;11.10;9.90;;;;;;;27.51;54.23;99667.70;131326;1254;106883;-77
2023/09/13 13:52:57;;;;;;;12.80;9.70;;;;;;;27.51;54.09;99660.95;131257;1250;106460;-78
2023/09/13 13:56:03;;;;;;;12.60;10.50;;;;;;;27.52;54.44;99657.16;131153;1250;108054;-78
2023/09/13 13:59:10;;;;;;;10.60;9.60;;;;;;;27.53;54.26;99651.63;131158;1253;106805;-78
2023/09/13 14:02:16;;;;;;;10.60;9.20;;;;;;;27.54;53.88;99650.69;131130;1255;108600;-77